createdAt,value
2022-10-28T00:01:16.290Z,101914.06
2022-10-28T00:04:18.816Z,101911.50
2022-10-28T00:07:20.789Z,101902.56
2022-10-28T00:10:23.053Z,101898.69
2022-10-28T00:13:24.964Z,101906.44
2022-10-28T00:16:28.615Z,101900.84
2022-10-28T00:19:30.677Z,101902.94
2022-10-28T00:22:32.854Z,101894.84
2022-10-28T00:25:34.835Z,101902.94
2022-10-28T00:28:41.436Z,101908.16
2022-10-28T00:31:43.376Z,101905.09
2022-10-28T00:34:45.656Z,101907.16
2022-10-28T00:37:47.629Z,101912.25
2022-10-28T00:40:49.805Z,101912.72
2022-10-28T00:43:55.125Z,101906.31
2022-10-28T00:46:57.364Z,101906.62
2022-10-28T00:50:11.694Z,101909.19
2022-10-28T00:53:25.324Z,101906.88
2022-10-28T00:56:29.807Z,101899.97
2022-10-28T00:59:34.031Z,101901.50
2022-10-28T01:02:41.792Z,101900.81
2022-10-28T01:05:46.508Z,101904.00
2022-10-28T01:08:48.461Z,101897.06
2022-10-28T01:11:51.308Z,101909.13
2022-10-28T01:14:53.180Z,101901.94
2022-10-28T01:18:10.898Z,101894.50
2022-10-28T01:21:18.540Z,101897.00
2022-10-28T01:24:36.150Z,101889.16
2022-10-28T01:27:44.386Z,101892.41
2022-10-28T01:31:01.734Z,101893.47
2022-10-28T01:34:22.282Z,101889.34
2022-10-28T01:37:24.539Z,101883.47
2022-10-28T01:40:33.788Z,101886.34
2022-10-28T01:43:45.172Z,101885.16
2022-10-28T01:46:47.072Z,101886.09
2022-10-28T01:49:52.774Z,101883.25
2022-10-28T01:52:57.189Z,101883.41
2022-10-28T01:56:01.109Z,101881.78
2022-10-28T01:59:05.211Z,101879.19
2022-10-28T02:02:07.517Z,101880.31
2022-10-28T02:05:28.616Z,101882.62
2022-10-28T02:08:41.328Z,101877.19
2022-10-28T02:11:43.539Z,101883.91
2022-10-28T02:14:45.490Z,101877.19
2022-10-28T02:17:57.057Z,101877.66
2022-10-28T02:21:03.632Z,101875.09
2022-10-28T02:24:11.365Z,101879.53
2022-10-28T02:27:22.424Z,101880.50
2022-10-28T02:30:35.279Z,101882.44
2022-10-28T02:33:38.508Z,101879.88
2022-10-28T02:36:44.230Z,101882.13
2022-10-28T02:39:49.426Z,101878.69
2022-10-28T02:42:57.899Z,101883.38
2022-10-28T02:46:01.637Z,101872.75
2022-10-28T02:49:06.280Z,101885.69
2022-10-28T02:52:08.771Z,101881.81
2022-10-28T02:55:10.995Z,101873.63
2022-10-28T02:58:12.950Z,101874.31
2022-10-28T03:01:15.265Z,101876.38
2022-10-28T03:04:17.610Z,101869.22
2022-10-28T03:07:20.320Z,101865.25
2022-10-28T03:10:22.253Z,101865.19
2022-10-28T03:13:24.568Z,101864.41
2022-10-28T03:16:29.513Z,101866.25
2022-10-28T03:19:31.757Z,101868.63
2022-10-28T03:22:33.696Z,101877.75
2022-10-28T03:25:36.052Z,101872.50
2022-10-28T03:28:38.251Z,101884.25
2022-10-28T03:31:40.740Z,101876.19
2022-10-28T03:34:42.780Z,101874.31
2022-10-28T03:37:45.145Z,101878.00
2022-10-28T03:40:48.483Z,101871.81
2022-10-28T03:43:50.834Z,101873.19
2022-10-28T03:46:52.796Z,101876.25
2022-10-28T03:49:54.989Z,101879.97
2022-10-28T03:52:56.933Z,101877.16
2022-10-28T03:56:00.213Z,101865.31
2022-10-28T03:59:02.134Z,101868.38
2022-10-28T04:02:04.428Z,101872.75
2022-10-28T04:05:06.897Z,101877.22
2022-10-28T04:08:08.781Z,101868.75
2022-10-28T04:11:10.996Z,101874.06
2022-10-28T04:14:12.886Z,101865.66
2022-10-28T04:17:15.093Z,101866.69
2022-10-28T04:20:17.030Z,101862.88
2022-10-28T04:23:19.315Z,101857.66
2022-10-28T04:26:21.258Z,101854.41
2022-10-28T04:29:23.415Z,101858.88
2022-10-28T04:32:25.330Z,101849.59
2022-10-28T04:35:27.534Z,101851.84
2022-10-28T04:38:29.549Z,101847.81
2022-10-28T04:41:31.812Z,101853.78
2022-10-28T04:44:33.721Z,101846.44
2022-10-28T04:47:35.935Z,101842.00
2022-10-28T04:50:37.941Z,101840.00
2022-10-28T04:53:45.392Z,101835.44
2022-10-28T04:56:47.296Z,101838.06
2022-10-28T04:59:49.487Z,101840.94
2022-10-28T05:02:51.554Z,101835.03
2022-10-28T05:05:53.799Z,101835.56
2022-10-28T05:08:55.766Z,101836.16
2022-10-28T05:11:57.989Z,101837.25
2022-10-28T05:14:59.969Z,101840.44
2022-10-28T05:18:02.194Z,101850.16
2022-10-28T05:21:04.191Z,101834.28
2022-10-28T05:24:06.559Z,101842.19
2022-10-28T05:27:08.493Z,101848.44
2022-10-28T05:30:11.240Z,101844.16
2022-10-28T05:33:13.351Z,101845.59
2022-10-28T05:36:15.515Z,101839.94
2022-10-28T05:39:17.737Z,101847.47
2022-10-28T05:42:20.062Z,101851.84
2022-10-28T05:45:22.000Z,101849.84
2022-10-28T05:48:24.647Z,101861.41
2022-10-28T05:51:26.584Z,101868.06
2022-10-28T05:54:29.078Z,101861.16
2022-10-28T05:57:33.352Z,101867.78
2022-10-28T06:00:35.625Z,101872.22
2022-10-28T06:03:37.902Z,101871.69
2022-10-28T06:06:39.877Z,101880.78
2022-10-28T06:09:42.068Z,101877.25
2022-10-28T06:12:42.418Z,101887.31
2022-10-28T06:15:49.227Z,101882.69
2022-10-28T06:18:51.190Z,101888.00
2022-10-28T06:21:53.425Z,101893.97
2022-10-28T06:24:55.318Z,101883.88
2022-10-28T06:27:58.740Z,101878.56
2022-10-28T06:31:02.054Z,101877.47
2022-10-28T06:34:04.306Z,101881.63
2022-10-28T06:37:06.257Z,101887.56
2022-10-28T06:40:08.807Z,101881.37
2022-10-28T06:43:12.569Z,101897.47
2022-10-28T06:46:14.755Z,101897.72
2022-10-28T06:49:20.636Z,101894.50
2022-10-28T06:52:22.955Z,101896.38
2022-10-28T06:55:25.580Z,101898.69
2022-10-28T06:58:27.882Z,101895.75
2022-10-28T07:01:29.992Z,101898.97
2022-10-28T07:04:33.197Z,101898.97
2022-10-28T07:07:37.320Z,101902.31
2022-10-28T07:10:40.436Z,101904.91
2022-10-28T07:13:45.435Z,101910.97
2022-10-28T07:16:50.370Z,101915.75
2022-10-28T07:19:52.346Z,101910.88
2022-10-28T07:22:58.018Z,101905.03
2022-10-28T07:25:59.951Z,101905.66
2022-10-28T07:29:02.092Z,101908.66
2022-10-28T07:32:04.071Z,101905.31
2022-10-28T07:35:06.322Z,101910.47
2022-10-28T07:38:08.483Z,101900.59
2022-10-28T07:41:10.919Z,101912.59
2022-10-28T07:44:12.865Z,101904.13
2022-10-28T07:47:15.805Z,101913.62
2022-10-28T07:50:17.690Z,101911.31
2022-10-28T07:53:21.003Z,101922.59
2022-10-28T07:56:25.154Z,101926.34
2022-10-28T07:59:27.469Z,101933.38
2022-10-28T08:02:29.658Z,101933.56
2022-10-28T08:05:31.893Z,101921.63
2022-10-28T08:08:37.398Z,101922.47
2022-10-28T08:11:39.903Z,101921.47
2022-10-28T08:14:41.779Z,101913.75
2022-10-28T08:17:50.273Z,101910.16
2022-10-28T08:20:52.242Z,101897.75
2022-10-28T08:23:55.543Z,101899.56
2022-10-28T08:26:57.461Z,101897.50
2022-10-28T08:29:59.911Z,101894.41
2022-10-28T08:33:02.718Z,101891.31
2022-10-28T08:36:06.834Z,101889.06
2022-10-28T08:39:09.407Z,101883.00
2022-10-28T08:42:36.027Z,101894.44
2022-10-28T08:45:49.861Z,101902.34
2022-10-28T08:48:53.854Z,101904.94
2022-10-28T08:52:12.561Z,101906.31
2022-10-28T08:55:24.286Z,101911.56
2022-10-28T08:58:31.617Z,101927.22
2022-10-28T09:01:42.023Z,101924.81
2022-10-28T09:04:46.157Z,101920.09
2022-10-28T09:07:51.315Z,101922.25
2022-10-28T09:11:03.441Z,101927.63
2022-10-28T09:14:38.140Z,101922.88
2022-10-28T09:17:43.293Z,101926.31
2022-10-28T09:20:46.925Z,101927.69
2022-10-28T09:23:59.164Z,101936.94
2022-10-28T09:27:07.629Z,101921.69
2022-10-28T09:30:25.088Z,101916.69
2022-10-28T09:33:30.405Z,101923.78
2022-10-28T09:36:35.312Z,101924.13
2022-10-28T09:39:41.996Z,101931.53
2022-10-28T09:42:48.038Z,101929.47
2022-10-28T09:45:52.367Z,101922.59
2022-10-28T09:48:56.974Z,101927.22
2022-10-28T09:52:12.826Z,101922.16
2022-10-28T09:55:21.970Z,101910.38
2022-10-28T09:58:24.594Z,101918.19
2022-10-28T10:01:28.236Z,101921.59
2022-10-28T10:04:35.938Z,101926.72
2022-10-28T10:07:39.722Z,101926.34
2022-10-28T10:10:54.248Z,101915.72
2022-10-28T10:13:58.830Z,101912.13
2022-10-28T10:17:06.479Z,101914.38
2022-10-28T10:20:16.409Z,101918.25
2022-10-28T10:23:41.229Z,101913.66
2022-10-28T10:26:43.749Z,101916.06
2022-10-28T10:29:47.402Z,101918.63
2022-10-28T10:32:49.522Z,101917.38
2022-10-28T10:36:01.115Z,101918.03
2022-10-28T10:39:03.572Z,101914.16
2022-10-28T10:42:16.779Z,101907.63
2022-10-28T10:45:20.728Z,101912.81
2022-10-28T10:48:23.374Z,101915.13
2022-10-28T10:51:30.244Z,101919.13
2022-10-28T10:54:36.338Z,101901.81
2022-10-28T10:57:38.281Z,101902.13
2022-10-28T11:00:45.510Z,101901.84
2022-10-28T11:03:54.217Z,101898.94
2022-10-28T11:06:58.234Z,101896.16
2022-10-28T11:10:01.004Z,101893.34
2022-10-28T11:13:05.099Z,101899.97
2022-10-28T11:16:16.334Z,101901.56
2022-10-28T11:19:39.689Z,101893.69
2022-10-28T11:22:55.019Z,101910.06
2022-10-28T11:26:01.046Z,101897.25
2022-10-28T11:29:02.872Z,101904.41
2022-10-28T11:32:28.678Z,101895.31
2022-10-28T11:35:46.547Z,101897.03
2022-10-28T11:39:08.290Z,101896.00
2022-10-28T11:42:43.118Z,101886.66
2022-10-28T11:45:53.076Z,101883.28
2022-10-28T11:48:58.097Z,101887.19
2022-10-28T11:52:00.514Z,101883.75
2022-10-28T11:55:08.443Z,101879.94
2022-10-28T12:01:29.162Z,101864.59
2022-10-28T12:05:01.296Z,101862.81
2022-10-28T12:08:07.503Z,101862.53
2022-10-28T12:11:28.364Z,101860.63
2022-10-28T12:14:48.118Z,101859.38
2022-10-28T12:18:09.094Z,101852.72
2022-10-28T12:21:20.080Z,101846.69
2022-10-28T12:24:24.242Z,101841.56
2022-10-28T12:27:29.232Z,101853.75
2022-10-28T12:30:33.360Z,101841.66
2022-10-28T12:33:39.451Z,101835.88
2022-10-28T12:36:57.210Z,101832.25
2022-10-28T12:40:14.320Z,101842.06
2022-10-28T12:43:24.172Z,101833.87
2022-10-28T12:46:32.031Z,101818.78
2022-10-28T12:49:45.837Z,101832.47
2022-10-28T12:52:47.770Z,101822.69
2022-10-28T12:55:53.431Z,101826.75
2022-10-28T12:59:13.360Z,101824.97
2022-10-28T13:02:35.885Z,101821.72
2022-10-28T13:05:43.881Z,101817.16
2022-10-28T13:08:52.092Z,101815.34
2022-10-28T13:12:12.631Z,101806.50
2022-10-28T13:15:17.859Z,101812.31
2022-10-28T13:18:38.917Z,101811.34
2022-10-28T13:21:44.103Z,101805.94
2022-10-28T13:24:58.721Z,101812.00
2022-10-28T13:28:01.128Z,101817.72
2022-10-28T13:31:04.939Z,101819.91
2022-10-28T13:34:08.275Z,101815.16
2022-10-28T13:37:18.999Z,101810.41
2022-10-28T13:40:41.421Z,101807.47
2022-10-28T13:43:49.225Z,101812.97
2022-10-28T13:47:03.611Z,101809.19
2022-10-28T13:50:08.931Z,101807.66
2022-10-28T13:53:26.603Z,101812.87
2022-10-28T13:56:43.899Z,101807.84
2022-10-28T13:59:51.277Z,101816.69
2022-10-28T14:02:56.691Z,101805.06
2022-10-28T14:06:00.788Z,101801.66
2022-10-28T14:09:30.038Z,101808.41
2022-10-28T14:12:40.394Z,101817.25
2022-10-28T14:15:42.557Z,101819.03
2022-10-28T14:18:52.369Z,101820.84
2022-10-28T14:21:58.960Z,101817.38
2022-10-28T14:25:23.806Z,101825.00
2022-10-28T14:28:28.905Z,101814.16
2022-10-28T14:31:36.609Z,101808.84
2022-10-28T14:34:41.321Z,101816.06
2022-10-28T14:38:03.786Z,101805.19
2022-10-28T14:41:16.276Z,101805.72
2022-10-28T14:44:18.409Z,101813.03
2022-10-28T14:47:20.263Z,101805.81
2022-10-28T14:50:40.190Z,101807.72
2022-10-28T14:53:43.091Z,101812.41
2022-10-28T14:56:46.383Z,101809.66
2022-10-28T14:59:49.785Z,101803.59
2022-10-28T15:02:51.923Z,101807.88
2022-10-28T15:05:53.837Z,101794.16
2022-10-28T15:08:56.925Z,101797.94
2022-10-28T15:12:00.945Z,101798.94
2022-10-28T15:15:03.850Z,101797.69
2022-10-28T15:18:19.918Z,101792.44
2022-10-28T15:21:22.776Z,101783.94
2022-10-28T15:24:24.705Z,101788.56
2022-10-28T15:27:37.022Z,101783.72
2022-10-28T15:30:45.840Z,101783.94
2022-10-28T15:33:48.824Z,101774.78
2022-10-28T15:40:21.946Z,101776.50
2022-10-28T15:43:28.184Z,101778.78
2022-10-28T15:46:32.208Z,101766.53
2022-10-28T15:49:38.767Z,101767.31
2022-10-28T15:52:45.313Z,101768.53
2022-10-28T15:56:02.864Z,101771.59
2022-10-28T15:59:23.269Z,101767.66
2022-10-28T16:02:41.961Z,101775.66
2022-10-28T16:05:45.563Z,101770.53
2022-10-28T16:08:48.247Z,101767.75
2022-10-28T16:11:52.403Z,101776.69
2022-10-28T16:15:00.288Z,101774.41
2022-10-28T16:18:02.685Z,101767.66
2022-10-28T16:21:04.959Z,101773.94
2022-10-28T16:24:09.113Z,101773.75
2022-10-28T16:27:17.107Z,101771.38
2022-10-28T16:30:19.460Z,101773.75
2022-10-28T16:33:25.143Z,101761.31
2022-10-28T16:36:28.507Z,101767.59
2022-10-28T16:39:30.490Z,101765.59
2022-10-28T16:42:32.721Z,101771.75
2022-10-28T16:45:34.907Z,101767.75
2022-10-28T16:48:37.203Z,101770.06
2022-10-28T16:51:39.859Z,101778.12
2022-10-28T16:54:42.221Z,101773.84
2022-10-28T16:57:44.221Z,101778.87
2022-10-28T17:00:46.834Z,101786.59
2022-10-28T17:03:48.762Z,101782.22
2022-10-28T17:06:51.084Z,101779.19
2022-10-28T17:09:53.173Z,101791.41
2022-10-28T17:12:56.074Z,101786.78
2022-10-28T17:15:58.376Z,101785.75
2022-10-28T17:19:00.626Z,101785.34
2022-10-28T17:22:06.185Z,101786.28
2022-10-28T17:25:12.415Z,101774.25
2022-10-28T17:28:14.305Z,101774.66
2022-10-28T17:31:20.451Z,101782.91
2022-10-28T17:34:24.281Z,101787.62
2022-10-28T17:37:26.541Z,101786.50
2022-10-28T17:40:28.603Z,101778.94
2022-10-28T17:43:30.966Z,101782.53
2022-10-28T17:46:33.008Z,101777.03
2022-10-28T17:49:36.425Z,101784.47
2022-10-28T17:52:38.642Z,101787.19
2022-10-28T17:55:42.128Z,101785.87
2022-10-28T17:58:44.144Z,101783.47
2022-10-28T18:01:46.486Z,101777.66
2022-10-28T18:04:48.913Z,101786.41
2022-10-28T18:07:53.949Z,101783.00
2022-10-28T18:10:57.555Z,101778.25
2022-10-28T18:13:59.537Z,101779.56
2022-10-28T18:17:01.791Z,101770.72
2022-10-28T18:20:03.863Z,101769.69
2022-10-28T18:23:06.053Z,101771.22
2022-10-28T18:26:10.019Z,101781.94
2022-10-28T18:29:13.613Z,101780.16
2022-10-28T18:32:16.357Z,101771.94
2022-10-28T18:35:18.584Z,101777.84
2022-10-28T18:38:20.514Z,101773.47
2022-10-28T18:41:24.517Z,101778.53
2022-10-28T18:44:31.796Z,101770.19
2022-10-28T18:47:34.956Z,101762.66
2022-10-28T18:50:36.893Z,101752.78
2022-10-28T18:53:40.443Z,101764.38
2022-10-28T18:56:46.216Z,101756.31
2022-10-28T19:00:17.589Z,101755.37
2022-10-28T19:03:23.073Z,101759.72
2022-10-28T19:06:26.224Z,101754.69
2022-10-28T19:09:28.266Z,101759.25
2022-10-28T19:12:30.526Z,101752.78
2022-10-28T19:15:33.040Z,101755.81
2022-10-28T19:18:37.323Z,101753.47
2022-10-28T19:21:39.281Z,101759.94
2022-10-28T19:24:41.487Z,101751.66
2022-10-28T19:27:43.454Z,101752.91
2022-10-28T19:30:45.687Z,101751.87
2022-10-28T19:33:47.772Z,101747.88
2022-10-28T19:36:50.030Z,101756.78
2022-10-28T19:39:56.447Z,101757.06
2022-10-28T19:42:58.957Z,101754.31
2022-10-28T19:46:05.085Z,101757.25
2022-10-28T19:49:07.550Z,101767.03
2022-10-28T19:52:09.702Z,101767.12
2022-10-28T19:55:14.834Z,101765.31
2022-10-28T19:58:17.157Z,101768.16
2022-10-28T20:01:20.421Z,101768.47
2022-10-28T20:04:22.669Z,101767.97
2022-10-28T20:07:24.606Z,101770.16
2022-10-28T20:10:26.874Z,101763.88
2022-10-28T20:13:29.302Z,101770.25
2022-10-28T20:16:32.234Z,101784.97
2022-10-28T20:19:34.195Z,101786.78
2022-10-28T20:22:41.332Z,101783.06
2022-10-28T20:25:51.119Z,101786.69
2022-10-28T20:28:53.595Z,101779.88
2022-10-28T20:31:55.507Z,101773.97
2022-10-28T20:34:57.676Z,101777.84
2022-10-28T20:37:59.935Z,101774.66
2022-10-28T20:41:02.393Z,101778.81
2022-10-28T20:44:05.102Z,101778.22
2022-10-28T20:47:07.332Z,101779.75
2022-10-28T20:50:09.318Z,101773.56
2022-10-28T20:53:11.541Z,101771.78
2022-10-28T20:56:17.505Z,101768.63
2022-10-28T20:59:19.761Z,101776.50
2022-10-28T21:02:21.912Z,101775.28
2022-10-28T21:05:24.351Z,101772.00
2022-10-28T21:08:26.291Z,101773.69
2022-10-28T21:11:30.161Z,101774.81
2022-10-28T21:14:32.146Z,101769.41
2022-10-28T21:17:34.385Z,101772.94
2022-10-28T21:20:37.192Z,101761.53
2022-10-28T21:23:39.467Z,101770.47
2022-10-28T21:26:41.420Z,101768.75
2022-10-28T21:29:43.663Z,101768.94
2022-10-28T21:32:45.629Z,101770.62
2022-10-28T21:35:54.323Z,101767.03
2022-10-28T21:38:56.303Z,101758.41
2022-10-28T21:41:58.505Z,101758.69
2022-10-28T21:45:00.489Z,101760.84
2022-10-28T21:48:02.718Z,101763.78
2022-10-28T21:51:08.646Z,101768.34
2022-10-28T21:54:14.078Z,101769.13
2022-10-28T21:57:16.005Z,101758.66
2022-10-28T22:00:18.251Z,101751.16
2022-10-28T22:03:20.460Z,101748.78
2022-10-28T22:06:22.739Z,101749.91
2022-10-28T22:09:24.905Z,101749.94
2022-10-28T22:12:26.836Z,101744.31
2022-10-28T22:15:29.098Z,101747.56
2022-10-28T22:18:32.543Z,101737.59
2022-10-28T22:21:39.052Z,101744.72
2022-10-28T22:24:41.068Z,101736.72
2022-10-28T22:27:44.948Z,101737.31
2022-10-28T22:30:46.850Z,101737.59
2022-10-28T22:33:49.560Z,101735.88
2022-10-28T22:36:51.639Z,101735.69
2022-10-28T22:39:53.911Z,101744.25
2022-10-28T22:42:55.838Z,101746.31
2022-10-28T22:45:58.447Z,101735.41
2022-10-28T22:49:01.909Z,101740.72
2022-10-28T22:52:04.150Z,101730.53
2022-10-28T22:55:06.240Z,101731.22
2022-10-28T22:58:08.502Z,101727.63
2022-10-28T23:01:11.931Z,101726.00
2022-10-28T23:04:14.314Z,101718.88
2022-10-28T23:07:16.225Z,101717.47
2022-10-28T23:10:18.467Z,101713.06
2022-10-28T23:13:20.403Z,101710.31
2022-10-28T23:16:23.764Z,101714.97
2022-10-28T23:19:25.661Z,101707.66
2022-10-28T23:22:31.150Z,101714.16
2022-10-28T23:25:33.106Z,101711.00
2022-10-28T23:28:35.297Z,101708.59
2022-10-28T23:31:37.184Z,101710.81
2022-10-28T23:34:39.379Z,101702.06
2022-10-28T23:37:41.340Z,101713.06
2022-10-28T23:40:43.526Z,101709.38
2022-10-28T23:43:45.434Z,101711.84
2022-10-28T23:46:47.672Z,101709.78
2022-10-28T23:49:49.765Z,101704.56
2022-10-28T23:52:53.601Z,101710.41
2022-10-28T23:55:56.038Z,101711.16
2022-10-28T23:58:58.315Z,101711.94
